Time;durP1;ratioP1;P1;durP2;ratioP2;P2;SDS_P1;SDS_P2;PMS_P1;PMS_P2;Temp;Humidity;BMP_temperature;BMP_pressure;BME280_temperature;BME280_humidity;BME280_pressure;Samples;Min_cycle;Max_cycle;Signal;HPM_P1;HPM_P2
2022/03/06 00:02:12;;;;;;;11.85;2.72;;;;;;;;;;5039429;28;20040;-63
2022/03/06 00:04:38;;;;;;;10.18;2.92;;;;;;;;;;5043939;28;20028;-63
2022/03/06 00:07:04;;;;;;;16.23;3.08;;;;;;;;;;5044686;28;20067;-63
2022/03/06 00:09:31;;;;;;;10.15;2.45;;;;;;;;;;5047766;28;20026;-63
2022/03/06 00:11:57;;;;;;;9.63;3.22;;;;;;;;;;5040050;28;20037;-63
2022/03/06 00:14:24;;;;;;;12.77;3.65;;;;;;;;;;5049690;28;20043;-63
2022/03/06 00:16:53;;;;;;;11.70;2.90;;;;;;;;;;5041050;28;20040;-63
2022/03/06 00:19:20;;;;;;;15.38;2.90;;;;;;;;;;5047586;28;20029;-63
2022/03/06 00:21:46;;;;;;;10.50;3.13;;;;;;;;;;5039709;28;20338;-63
2022/03/06 00:24:12;;;;;;;10.93;2.35;;;;;;;;;;5032593;28;20037;-63
2022/03/06 00:26:39;;;;;;;11.45;2.90;;;;;;;;;;5032126;28;20033;-63
2022/03/06 00:29:05;;;;;;;8.48;2.20;;;;;;;;;;5030542;28;20033;-63
2022/03/06 00:31:31;;;;;;;11.30;3.67;;;;;;;;;;5039841;28;20120;-63
2022/03/06 00:33:57;;;;;;;8.55;2.97;;;;;;;;;;5032157;28;20030;-63
2022/03/06 00:36:24;;;;;;;12.25;2.05;;;;;;;;;;5031781;28;20057;-63
2022/03/06 00:38:50;;;;;;;16.40;2.42;;;;;;;;;;5032324;28;20609;-63
2022/03/06 00:41:16;;;;;;;9.55;2.47;;;;;;;;;;5031855;28;20018;-63
2022/03/06 00:43:43;;;;;;;15.52;2.50;;;;;;;;;;5043766;28;20031;-63
2022/03/06 00:46:09;;;;;;;16.85;3.53;;;;;;;;;;5051938;28;20029;-63
2022/03/06 00:48:36;;;;;;;14.10;2.42;;;;;;;;;;5051840;28;20053;-63
2022/03/06 00:51:02;;;;;;;13.95;2.45;;;;;;;;;;5052147;28;20273;-63
2022/03/06 00:53:29;;;;;;;10.15;2.17;;;;;;;;;;5051790;28;20493;-63
2022/03/06 00:55:55;;;;;;;14.50;2.90;;;;;;;;;;5051605;28;20040;-63
2022/03/06 00:58:21;;;;;;;13.88;3.15;;;;;;;;;;5055263;28;20033;-63
2022/03/06 01:00:48;;;;;;;11.45;2.53;;;;;;;;;;5055780;28;20029;-63
2022/03/06 01:03:16;;;;;;;5.30;2.35;;;;;;;;;;5041607;28;20489;-63
2022/03/06 01:05:42;;;;;;;9.48;2.75;;;;;;;;;;5054112;28;20037;-63
2022/03/06 01:08:09;;;;;;;8.43;2.78;;;;;;;;;;5056049;28;20374;-63
2022/03/06 01:10:36;;;;;;;10.30;4.13;;;;;;;;;;5055493;28;20079;-63
2022/03/06 01:13:02;;;;;;;9.32;2.42;;;;;;;;;;5055001;28;20065;-63
2022/03/06 01:15:29;;;;;;;12.40;2.80;;;;;;;;;;5048064;28;20032;-63
2022/03/06 01:17:55;;;;;;;15.15;3.00;;;;;;;;;;5035858;28;20034;-63
2022/03/06 01:20:22;;;;;;;8.18;2.80;;;;;;;;;;5055087;28;20635;-63
2022/03/06 01:22:48;;;;;;;14.50;3.17;;;;;;;;;;5055530;28;20025;-63
2022/03/06 01:25:15;;;;;;;20.15;3.70;;;;;;;;;;5055107;28;20037;-63
2022/03/06 01:27:41;;;;;;;11.32;4.97;;;;;;;;;;5054978;28;20024;-63
2022/03/06 01:30:08;;;;;;;21.52;3.05;;;;;;;;;;5053476;28;20103;-63
2022/03/06 01:32:35;;;;;;;11.77;3.13;;;;;;;;;;5035059;28;20445;-63
2022/03/06 01:35:01;;;;;;;16.92;3.45;;;;;;;;;;5038422;28;20025;-63
2022/03/06 01:37:27;;;;;;;12.02;2.70;;;;;;;;;;5047832;28;20103;-63
2022/03/06 01:39:53;;;;;;;18.98;3.42;;;;;;;;;;5035174;28;20030;-63
2022/03/06 01:42:19;;;;;;;16.85;3.30;;;;;;;;;;5039300;28;20033;-63
2022/03/06 01:44:46;;;;;;;10.35;3.17;;;;;;;;;;5042292;28;20042;-63
2022/03/06 01:47:12;;;;;;;18.20;3.00;;;;;;;;;;5034958;28;20022;-63
2022/03/06 01:49:39;;;;;;;15.70;5.38;;;;;;;;;;5034782;28;20036;-63
2022/03/06 01:52:05;;;;;;;13.27;2.72;;;;;;;;;;5035175;28;20068;-63
2022/03/06 01:54:31;;;;;;;10.05;3.15;;;;;;;;;;5034644;28;20026;-63
2022/03/06 01:56:57;;;;;;;18.08;3.22;;;;;;;;;;5045660;28;20494;-63
2022/03/06 01:59:24;;;;;;;11.45;3.92;;;;;;;;;;5053503;28;20393;-63
2022/03/06 02:01:50;;;;;;;13.07;2.58;;;;;;;;;;5035811;28;20029;-63
2022/03/06 02:04:16;;;;;;;14.73;2.63;;;;;;;;;;5034600;28;20041;-63
2022/03/06 02:06:43;;;;;;;10.50;2.67;;;;;;;;;;5034617;28;20036;-63
2022/03/06 02:09:09;;;;;;;6.05;2.00;;;;;;;;;;5051119;28;20021;-63
2022/03/06 02:11:35;;;;;;;13.70;2.80;;;;;;;;;;5053673;28;20056;-63
2022/03/06 02:14:02;;;;;;;10.88;2.42;;;;;;;;;;5054607;28;20083;-63
2022/03/06 02:16:32;;;;;;;7.32;2.80;;;;;;;;;;5054188;28;20064;-63
2022/03/06 02:18:59;;;;;;;18.77;2.80;;;;;;;;;;5054131;28;20107;-63
2022/03/06 02:21:25;;;;;;;11.25;2.72;;;;;;;;;;5053899;28;20144;-63
2022/03/06 02:23:52;;;;;;;7.97;2.42;;;;;;;;;;5054257;28;20029;-63
2022/03/06 02:26:18;;;;;;;8.40;2.35;;;;;;;;;;5053825;28;20060;-63
2022/03/06 02:28:44;;;;;;;12.75;2.30;;;;;;;;;;5035846;28;20029;-63
2022/03/06 02:31:12;;;;;;;5.07;1.83;;;;;;;;;;5035233;28;20432;-63
2022/03/06 02:33:38;;;;;;;5.72;1.73;;;;;;;;;;5033967;28;20379;-63
2022/03/06 02:36:04;;;;;;;10.35;2.28;;;;;;;;;;5034190;28;20437;-63
2022/03/06 02:38:31;;;;;;;5.43;1.45;;;;;;;;;;5033975;28;20037;-63
2022/03/06 02:40:57;;;;;;;11.27;2.25;;;;;;;;;;5033883;28;20025;-63
2022/03/06 02:43:23;;;;;;;8.82;2.38;;;;;;;;;;5034090;28;20068;-63
2022/03/06 02:45:50;;;;;;;6.38;2.03;;;;;;;;;;5034005;28;20034;-63
2022/03/06 02:48:17;;;;;;;6.00;2.17;;;;;;;;;;5047727;28;20033;-63
2022/03/06 02:50:43;;;;;;;9.27;1.88;;;;;;;;;;5053627;28;20013;-63
2022/03/06 02:53:10;;;;;;;4.47;1.70;;;;;;;;;;5053987;28;20053;-63
2022/03/06 02:55:36;;;;;;;7.30;1.88;;;;;;;;;;5053002;28;20060;-63
2022/03/06 02:58:02;;;;;;;24.23;2.65;;;;;;;;;;5053373;28;20028;-63
2022/03/06 03:00:29;;;;;;;13.50;1.75;;;;;;;;;;5052473;28;20057;-63
2022/03/06 03:02:55;;;;;;;6.80;2.10;;;;;;;;;;5036284;28;20036;-63
2022/03/06 03:05:21;;;;;;;9.63;1.90;;;;;;;;;;5053366;28;20114;-63
2022/03/06 03:07:48;;;;;;;7.35;2.08;;;;;;;;;;5053293;28;20037;-63
2022/03/06 03:10:16;;;;;;;9.02;1.70;;;;;;;;;;5033507;28;20097;-63
2022/03/06 03:12:42;;;;;;;12.23;2.45;;;;;;;;;;5033119;28;20103;-63
2022/03/06 03:15:09;;;;;;;3.88;2.10;;;;;;;;;;5041632;28;20033;-63
2022/03/06 03:17:36;;;;;;;20.45;4.05;;;;;;;;;;5049492;28;20119;-63
2022/03/06 03:20:02;;;;;;;10.18;1.92;;;;;;;;;;5051063;28;20375;-63
2022/03/06 03:22:28;;;;;;;9.32;2.25;;;;;;;;;;5043447;28;20451;-63
2022/03/06 03:24:54;;;;;;;11.85;2.38;;;;;;;;;;5043749;28;20032;-63
2022/03/06 03:27:20;;;;;;;6.53;2.28;;;;;;;;;;5044455;28;20385;-63
2022/03/06 03:29:46;;;;;;;6.15;2.25;;;;;;;;;;5043484;28;20033;-63
2022/03/06 03:32:12;;;;;;;12.55;2.70;;;;;;;;;;5046861;28;20052;-63
2022/03/06 03:34:38;;;;;;;15.73;2.38;;;;;;;;;;5041107;28;20124;-63
2022/03/06 03:37:05;;;;;;;9.88;2.08;;;;;;;;;;5045216;28;20017;-63
2022/03/06 03:39:31;;;;;;;14.30;2.35;;;;;;;;;;5043239;28;20492;-63
2022/03/06 03:41:57;;;;;;;11.55;2.35;;;;;;;;;;5040289;28;20026;-63
2022/03/06 03:44:23;;;;;;;7.53;1.98;;;;;;;;;;5040433;28;20040;-63
2022/03/06 03:46:49;;;;;;;7.90;2.38;;;;;;;;;;5043123;28;20037;-63
2022/03/06 03:49:16;;;;;;;9.23;2.45;;;;;;;;;;5043605;28;20124;-63
2022/03/06 03:51:43;;;;;;;7.15;2.83;;;;;;;;;;5042527;28;20025;-63
2022/03/06 03:54:09;;;;;;;11.73;2.75;;;;;;;;;;5043523;28;20025;-63
2022/03/06 03:56:35;;;;;;;6.93;2.05;;;;;;;;;;5050652;28;20029;-63
2022/03/06 03:59:01;;;;;;;3.13;1.33;;;;;;;;;;5042894;28;20052;-63
2022/03/06 04:01:27;;;;;;;6.43;1.63;;;;;;;;;;5033374;28;20026;-63
2022/03/06 04:03:53;;;;;;;4.30;1.60;;;;;;;;;;5047383;28;20431;-63
2022/03/06 04:06:19;;;;;;;4.50;1.98;;;;;;;;;;5052325;28;20033;-63
2022/03/06 04:08:45;;;;;;;13.82;3.20;;;;;;;;;;5051845;28;20579;-63
2022/03/06 04:11:11;;;;;;;9.98;3.92;;;;;;;;;;5052514;28;20021;-63
2022/03/06 04:13:38;;;;;;;11.20;4.85;;;;;;;;;;5051560;28;20052;-63
2022/03/06 04:16:04;;;;;;;11.20;5.75;;;;;;;;;;5050853;28;20021;-63
2022/03/06 04:18:30;;;;;;;12.50;6.18;;;;;;;;;;5052291;28;20104;-63
2022/03/06 04:20:56;;;;;;;15.05;7.22;;;;;;;;;;5051667;28;20080;-63
2022/03/06 04:23:22;;;;;;;16.67;9.13;;;;;;;;;;5041676;28;20033;-63
2022/03/06 04:25:48;;;;;;;27.58;12.35;;;;;;;;;;5044174;28;20071;-63
2022/03/06 04:28:14;;;;;;;26.80;12.85;;;;;;;;;;5052356;28;20027;-63
2022/03/06 04:30:41;;;;;;;33.53;15.70;;;;;;;;;;5051143;28;20074;-63
2022/03/06 04:33:07;;;;;;;61.60;25.75;;;;;;;;;;5038649;28;20033;-63
2022/03/06 04:35:34;;;;;;;64.15;28.05;;;;;;;;;;5031909;28;20516;-63
2022/03/06 04:38:00;;;;;;;76.30;32.63;;;;;;;;;;5033243;28;20033;-63
2022/03/06 04:40:26;;;;;;;85.15;36.97;;;;;;;;;;5035652;28;20482;-63
2022/03/06 04:42:52;;;;;;;90.80;37.35;;;;;;;;;;5031708;28;20030;-63
2022/03/06 04:45:18;;;;;;;98.07;38.90;;;;;;;;;;5032114;28;20033;-63
2022/03/06 04:47:44;;;;;;;93.93;39.22;;;;;;;;;;5031929;28;20197;-63
2022/03/06 04:50:11;;;;;;;111.43;41.10;;;;;;;;;;5031876;28;20549;-63
2022/03/06 04:52:37;;;;;;;107.95;41.67;;;;;;;;;;5032036;28;20425;-63
2022/03/06 04:55:03;;;;;;;91.70;40.45;;;;;;;;;;5031604;28;20482;-63
2022/03/06 04:57:29;;;;;;;113.70;42.10;;;;;;;;;;5033230;28;20033;-63
2022/03/06 04:59:56;;;;;;;95.50;39.63;;;;;;;;;;5031852;28;20056;-63
2022/03/06 05:02:22;;;;;;;87.57;38.08;;;;;;;;;;5047992;28;20032;-63
2022/03/06 05:04:48;;;;;;;84.95;37.25;;;;;;;;;;5040761;28;20026;-63
2022/03/06 05:07:14;;;;;;;86.20;36.72;;;;;;;;;;5031957;28;20030;-63
2022/03/06 05:09:40;;;;;;;88.30;35.75;;;;;;;;;;5049432;28;20025;-63
2022/03/06 05:12:08;;;;;;;98.60;37.90;;;;;;;;;;5043315;28;20067;-63
2022/03/06 05:14:34;;;;;;;89.15;36.33;;;;;;;;;;5031831;28;20037;-63
2022/03/06 05:17:00;;;;;;;87.00;32.95;;;;;;;;;;5032546;28;20485;-63
2022/03/06 05:19:26;;;;;;;82.03;33.28;;;;;;;;;;5031633;28;20044;-63
2022/03/06 05:21:52;;;;;;;79.38;31.48;;;;;;;;;;5045654;28;20033;-63
2022/03/06 05:24:19;;;;;;;81.65;31.48;;;;;;;;;;5050951;28;20033;-63
2022/03/06 05:26:45;;;;;;;73.68;30.77;;;;;;;;;;5051022;28;20051;-63
2022/03/06 05:29:11;;;;;;;72.43;29.80;;;;;;;;;;5051562;28;20025;-63
2022/03/06 05:31:37;;;;;;;70.47;26.73;;;;;;;;;;5051942;28;20112;-63
2022/03/06 05:34:03;;;;;;;69.00;26.90;;;;;;;;;;5051190;28;20017;-63
2022/03/06 05:36:30;;;;;;;65.55;25.15;;;;;;;;;;5049675;28;20125;-63
2022/03/06 05:38:56;;;;;;;57.88;25.05;;;;;;;;;;5051265;28;20128;-63
2022/03/06 05:41:22;;;;;;;66.68;23.98;;;;;;;;;;5051292;28;20100;-63
2022/03/06 05:43:48;;;;;;;61.88;22.58;;;;;;;;;;5053906;28;20036;-63
2022/03/06 05:46:14;;;;;;;70.25;22.95;;;;;;;;;;5055213;28;20033;-63
2022/03/06 05:48:40;;;;;;;56.70;23.02;;;;;;;;;;5044058;28;20021;-63
2022/03/06 05:51:06;;;;;;;51.90;20.95;;;;;;;;;;5046654;28;20021;-63
2022/03/06 05:53:33;;;;;;;58.72;21.95;;;;;;;;;;5048133;28;20112;-63
2022/03/06 05:55:59;;;;;;;50.60;21.92;;;;;;;;;;5048873;28;20021;-63
2022/03/06 05:58:25;;;;;;;55.38;21.05;;;;;;;;;;5047821;28;20037;-63
2022/03/06 06:00:51;;;;;;;56.67;21.90;;;;;;;;;;5045329;28;20078;-63
2022/03/06 06:03:17;;;;;;;51.38;19.13;;;;;;;;;;5049547;28;20169;-62
2022/03/06 06:05:44;;;;;;;44.58;18.25;;;;;;;;;;5042596;28;20028;-63
2022/03/06 06:08:10;;;;;;;57.90;21.52;;;;;;;;;;5054613;28;20100;-63
2022/03/06 06:10:37;;;;;;;56.72;21.08;;;;;;;;;;5054172;28;20484;-63
2022/03/06 06:13:03;;;;;;;55.78;20.02;;;;;;;;;;5054011;28;20037;-63
2022/03/06 06:15:29;;;;;;;51.72;19.77;;;;;;;;;;5054578;28;20025;-63
2022/03/06 06:17:55;;;;;;;67.78;20.33;;;;;;;;;;5039150;28;20573;-63
2022/03/06 06:20:22;;;;;;;58.60;20.65;;;;;;;;;;5048774;28;20033;-63
2022/03/06 06:22:48;;;;;;;72.45;20.50;;;;;;;;;;5044444;28;20067;-63
2022/03/06 06:25:14;;;;;;;49.22;19.13;;;;;;;;;;5034744;28;20025;-63
2022/03/06 06:27:40;;;;;;;49.05;18.92;;;;;;;;;;5039487;28;20036;-63
2022/03/06 06:30:07;;;;;;;54.95;19.38;;;;;;;;;;5049085;28;20028;-63
2022/03/06 06:32:33;;;;;;;50.45;19.17;;;;;;;;;;5045762;28;20381;-63
2022/03/06 06:34:59;;;;;;;55.20;21.45;;;;;;;;;;5055374;28;20021;-63
2022/03/06 06:37:25;;;;;;;62.60;21.10;;;;;;;;;;5045339;28;20041;-63
2022/03/06 06:39:51;;;;;;;48.38;18.38;;;;;;;;;;5040715;28;20044;-63
2022/03/06 06:42:17;;;;;;;57.78;20.02;;;;;;;;;;5036169;28;20040;-63
2022/03/06 06:44:44;;;;;;;52.28;19.85;;;;;;;;;;5047394;28;20036;-63
2022/03/06 06:47:10;;;;;;;48.67;19.08;;;;;;;;;;5035913;28;20032;-63
2022/03/06 06:49:36;;;;;;;54.00;18.88;;;;;;;;;;5047619;28;20048;-73
2022/03/06 06:52:02;;;;;;;60.92;20.45;;;;;;;;;;5049485;28;20029;-63
2022/03/06 06:54:28;;;;;;;53.15;20.33;;;;;;;;;;5041285;28;20029;-63
2022/03/06 06:56:54;;;;;;;53.97;19.65;;;;;;;;;;5051374;28;20041;-63
2022/03/06 06:59:20;;;;;;;69.43;24.13;;;;;;;;;;5037742;28;20037;-63
2022/03/06 07:01:46;;;;;;;52.38;21.45;;;;;;;;;;5045035;28;20028;-64
2022/03/06 07:04:13;;;;;;;66.55;21.27;;;;;;;;;;5042413;28;20112;-63
2022/03/06 07:06:39;;;;;;;54.20;20.02;;;;;;;;;;5042623;28;20025;-63
2022/03/06 07:09:05;;;;;;;58.58;21.20;;;;;;;;;;5036109;28;20030;-63
2022/03/06 07:11:31;;;;;;;61.95;20.90;;;;;;;;;;5048899;28;20022;-63
2022/03/06 07:13:57;;;;;;;60.15;21.55;;;;;;;;;;5044827;28;20079;-63
2022/03/06 07:16:23;;;;;;;60.45;21.67;;;;;;;;;;5046159;28;20033;-63
2022/03/06 07:18:49;;;;;;;58.35;22.45;;;;;;;;;;5036249;28;20021;-63
2022/03/06 07:21:16;;;;;;;58.20;20.73;;;;;;;;;;5048520;28;20028;-63
2022/03/06 07:23:42;;;;;;;50.88;21.40;;;;;;;;;;5041313;28;20595;-63
2022/03/06 07:26:08;;;;;;;48.33;20.98;;;;;;;;;;5041233;28;20021;-63
2022/03/06 07:28:34;;;;;;;56.60;20.77;;;;;;;;;;5041129;28;20239;-63
2022/03/06 07:31:01;;;;;;;61.08;23.50;;;;;;;;;;5040966;28;20022;-63
2022/03/06 07:33:27;;;;;;;66.85;22.17;;;;;;;;;;5049226;28;20392;-63
2022/03/06 07:35:54;;;;;;;64.03;24.55;;;;;;;;;;5039399;28;20025;-63
2022/03/06 07:38:20;;;;;;;63.15;22.83;;;;;;;;;;5042171;28;20029;-63
2022/03/06 07:40:46;;;;;;;65.15;23.10;;;;;;;;;;5036984;28;20029;-63
2022/03/06 07:43:12;;;;;;;57.13;21.85;;;;;;;;;;5048655;28;20493;-63
2022/03/06 07:45:38;;;;;;;70.15;24.10;;;;;;;;;;5048206;28;20040;-63
2022/03/06 07:48:04;;;;;;;67.07;24.58;;;;;;;;;;5038576;28;20393;-63
2022/03/06 07:50:31;;;;;;;72.68;25.45;;;;;;;;;;5043260;28;20140;-63
2022/03/06 07:52:57;;;;;;;60.55;23.27;;;;;;;;;;5042807;28;20022;-63
2022/03/06 07:55:23;;;;;;;63.15;24.42;;;;;;;;;;5044723;28;20505;-63
2022/03/06 07:57:50;;;;;;;65.28;24.50;;;;;;;;;;5044060;28;20025;-63
2022/03/06 08:00:16;;;;;;;67.97;24.38;;;;;;;;;;5042631;28;20108;-63
2022/03/06 08:02:42;;;;;;;69.32;24.48;;;;;;;;;;5044051;28;20021;-63
2022/03/06 08:05:08;;;;;;;65.75;23.80;;;;;;;;;;5043127;28;20032;-63
2022/03/06 08:07:35;;;;;;;63.33;24.83;;;;;;;;;;5049773;28;20017;-63
2022/03/06 08:10:04;;;;;;;67.25;23.05;;;;;;;;;;5052803;28;20048;-63
2022/03/06 08:12:30;;;;;;;70.00;24.42;;;;;;;;;;5052224;28;20084;-63
2022/03/06 08:14:56;;;;;;;61.80;23.30;;;;;;;;;;5052054;28;20037;-63
2022/03/06 08:17:22;;;;;;;71.80;23.95;;;;;;;;;;5034529;28;20029;-63
2022/03/06 08:19:48;;;;;;;57.42;22.00;;;;;;;;;;5050748;28;20025;-63
2022/03/06 08:22:15;;;;;;;76.18;24.90;;;;;;;;;;5039513;28;20032;-63
2022/03/06 08:24:41;;;;;;;66.70;23.15;;;;;;;;;;5040312;28;20473;-63
2022/03/06 08:27:08;;;;;;;67.20;23.02;;;;;;;;;;5036312;28;20393;-63
2022/03/06 08:29:34;;;;;;;58.13;20.88;;;;;;;;;;5040570;28;20108;-63
2022/03/06 08:32:01;;;;;;;78.97;23.50;;;;;;;;;;5031554;28;20034;-63
2022/03/06 08:34:27;;;;;;;68.68;24.13;;;;;;;;;;5038954;28;20480;-63
2022/03/06 08:36:53;;;;;;;56.97;23.10;;;;;;;;;;5031613;28;20100;-63
2022/03/06 08:39:19;;;;;;;67.00;22.40;;;;;;;;;;5046013;28;20029;-63
2022/03/06 08:41:46;;;;;;;64.60;23.55;;;;;;;;;;5051367;28;20499;-63
2022/03/06 08:44:13;;;;;;;73.22;22.52;;;;;;;;;;5051064;28;20485;-63
2022/03/06 08:46:39;;;;;;;57.30;21.60;;;;;;;;;;5031652;28;20034;-63
2022/03/06 08:49:05;;;;;;;63.58;21.00;;;;;;;;;;5038736;28;20021;-63
2022/03/06 08:51:32;;;;;;;67.63;22.05;;;;;;;;;;5031333;28;20099;-63
2022/03/06 08:53:59;;;;;;;66.03;21.55;;;;;;;;;;5046598;28;20499;-63
2022/03/06 08:56:25;;;;;;;63.33;18.50;;;;;;;;;;5034294;28;20036;-63
2022/03/06 08:58:51;;;;;;;57.55;18.02;;;;;;;;;;5038355;28;20026;-63
2022/03/06 09:01:17;;;;;;;57.90;16.88;;;;;;;;;;5031435;28;20490;-63
2022/03/06 09:03:43;;;;;;;51.33;16.13;;;;;;;;;;5041873;28;20516;-63
2022/03/06 09:06:09;;;;;;;47.90;16.40;;;;;;;;;;5049635;28;20025;-63
2022/03/06 09:08:36;;;;;;;51.53;16.58;;;;;;;;;;5039140;28;20025;-63
2022/03/06 09:11:02;;;;;;;47.15;16.73;;;;;;;;;;5034506;28;20017;-63
2022/03/06 09:13:28;;;;;;;36.85;14.05;;;;;;;;;;5043448;28;20048;-63
2022/03/06 09:15:54;;;;;;;37.75;15.15;;;;;;;;;;5042711;28;20037;-63
2022/03/06 09:18:20;;;;;;;39.95;15.27;;;;;;;;;;5042860;28;20036;-63
2022/03/06 09:20:46;;;;;;;35.08;13.70;;;;;;;;;;5045316;28;20087;-63
2022/03/06 09:23:12;;;;;;;44.22;14.88;;;;;;;;;;5046706;28;20049;-63
2022/03/06 09:25:40;;;;;;;33.85;13.23;;;;;;;;;;5047047;28;20033;-63
2022/03/06 09:28:07;;;;;;;45.35;14.82;;;;;;;;;;5047386;28;20029;-63
2022/03/06 09:30:33;;;;;;;38.20;13.73;;;;;;;;;;5051938;28;20111;-63
2022/03/06 09:32:59;;;;;;;34.83;12.52;;;;;;;;;;5050195;28;20017;-63
2022/03/06 09:35:25;;;;;;;37.47;13.23;;;;;;;;;;5051201;28;20032;-63
2022/03/06 09:37:51;;;;;;;38.10;13.23;;;;;;;;;;5035301;28;20044;-63
2022/03/06 09:40:18;;;;;;;28.83;12.02;;;;;;;;;;5034929;28;20034;-63
2022/03/06 09:42:44;;;;;;;32.33;11.50;;;;;;;;;;5034873;28;20044;-63
2022/03/06 09:45:11;;;;;;;37.92;11.70;;;;;;;;;;5035046;28;20596;-63
2022/03/06 09:47:38;;;;;;;33.47;11.23;;;;;;;;;;5042572;28;20029;-63
2022/03/06 09:50:05;;;;;;;28.88;10.65;;;;;;;;;;5046328;28;20473;-63
2022/03/06 09:52:31;;;;;;;30.13;12.93;;;;;;;;;;5035358;28;20032;-63
2022/03/06 09:54:57;;;;;;;31.58;11.60;;;;;;;;;;5034425;28;20025;-63
2022/03/06 09:57:24;;;;;;;31.23;10.60;;;;;;;;;;5041069;28;21756;-63
2022/03/06 09:59:50;;;;;;;30.60;10.25;;;;;;;;;;5038938;28;20031;-63
2022/03/06 10:02:16;;;;;;;30.40;10.43;;;;;;;;;;5040863;28;20029;-63
2022/03/06 10:04:43;;;;;;;32.15;10.35;;;;;;;;;;5042762;28;20033;-63
2022/03/06 10:07:10;;;;;;;25.65;9.32;;;;;;;;;;5042541;28;20034;-63
2022/03/06 10:09:42;;;;;;;29.27;10.10;;;;;;;;;;5042543;28;20480;-63
2022/03/06 10:12:26;;;;;;;25.30;9.07;;;;;;;;;;5036877;28;20052;-63
2022/03/06 10:14:54;;;;;;;28.85;9.52;;;;;;;;;;5042228;28;20033;-63
2022/03/06 10:17:21;;;;;;;39.08;11.07;;;;;;;;;;5037927;28;20048;-63
2022/03/06 10:19:51;;;;;;;24.80;9.77;;;;;;;;;;5040033;28;20117;-63
2022/03/06 10:22:17;;;;;;;33.78;10.35;;;;;;;;;;5047676;28;20052;-63
2022/03/06 10:25:10;;;;;;;19.95;9.57;;;;;;;;;;5036514;28;20418;-63
2022/03/06 10:27:45;;;;;;;25.33;9.37;;;;;;;;;;5048243;28;20041;-63
2022/03/06 10:30:31;;;;;;;33.38;9.20;;;;;;;;;;5042395;28;20020;-63
2022/03/06 10:32:58;;;;;;;29.15;9.85;;;;;;;;;;5044458;28;20159;-63
2022/03/06 10:35:34;;;;;;;35.72;9.93;;;;;;;;;;5037110;28;20025;-63
2022/03/06 10:38:01;;;;;;;25.33;9.45;;;;;;;;;;5050412;28;20028;-63
2022/03/06 10:40:38;;;;;;;22.40;8.55;;;;;;;;;;5037140;28;20036;-73
2022/03/06 10:43:16;;;;;;;32.85;9.27;;;;;;;;;;5040770;28;20034;-62
2022/03/06 10:45:42;;;;;;;34.60;10.18;;;;;;;;;;5040427;28;20366;-63
2022/03/06 10:48:09;;;;;;;27.45;8.82;;;;;;;;;;5035655;28;20045;-63
2022/03/06 10:50:35;;;;;;;29.40;9.52;;;;;;;;;;5041384;28;20032;-63
2022/03/06 10:53:01;;;;;;;30.42;9.55;;;;;;;;;;5033595;28;20037;-63
2022/03/06 10:55:34;;;;;;;31.17;9.85;;;;;;;;;;5050194;28;20496;-63
2022/03/06 10:58:00;;;;;;;;;;;;;;;;;;5044181;28;20021;-63
2022/03/06 11:00:27;;;;;;;28.92;10.07;;;;;;;;;;5038808;28;19923;-63
2022/03/06 11:02:53;;;;;;;33.05;10.52;;;;;;;;;;5050524;28;20044;-63
2022/03/06 11:05:19;;;;;;;23.88;10.02;;;;;;;;;;5048000;28;20481;-63
2022/03/06 11:07:46;;;;;;;36.20;9.20;;;;;;;;;;5044358;28;20026;-63
2022/03/06 11:10:12;;;;;;;27.33;9.75;;;;;;;;;;5041336;28;20036;-63
2022/03/06 11:12:39;;;;;;;28.23;9.40;;;;;;;;;;5034903;28;20050;-63
2022/03/06 11:15:05;;;;;;;36.85;9.45;;;;;;;;;;5037536;28;20029;-63
2022/03/06 11:17:34;;;;;;;22.65;9.50;;;;;;;;;;5037829;28;20043;-63
2022/03/06 11:20:00;;;;;;;29.17;10.10;;;;;;;;;;5060064;28;20035;-63
2022/03/06 11:22:58;;;;;;;32.60;9.82;;;;;;;;;;5060012;28;20036;-63
2022/03/06 11:25:27;;;;;;;25.90;9.70;;;;;;;;;;5025664;28;20038;-63
2022/03/06 11:28:07;;;;;;;27.48;10.18;;;;;;;;;;5020284;28;20596;-63
2022/03/06 11:30:34;;;;;;;24.75;9.73;;;;;;;;;;5015302;28;20048;-63
2022/03/06 11:33:00;;;;;;;28.35;10.98;;;;;;;;;;5021123;28;20438;-63
2022/03/06 11:35:31;;;;;;;29.88;10.13;;;;;;;;;;5014885;28;20048;-63
2022/03/06 11:37:58;;;;;;;37.47;10.52;;;;;;;;;;5021751;28;20072;-63
2022/03/06 11:40:34;;;;;;;20.55;9.18;;;;;;;;;;5019855;28;20034;-63
2022/03/06 11:43:00;;;;;;;28.85;11.45;;;;;;;;;;5024182;28;20040;-63
2022/03/06 11:45:45;;;;;;;27.27;10.00;;;;;;;;;;5023472;28;20037;-63
2022/03/06 11:48:21;;;;;;;36.78;11.90;;;;;;;;;;5025915;28;20409;-63
2022/03/06 11:51:07;;;;;;;31.08;10.27;;;;;;;;;;5022103;28;20647;-63
2022/03/06 11:53:46;;;;;;;29.67;11.23;;;;;;;;;;5021301;28;20044;-63
2022/03/06 11:56:31;;;;;;;34.42;11.10;;;;;;;;;;5021120;28;20036;-63
2022/03/06 11:58:58;;;;;;;29.55;11.45;;;;;;;;;;5024472;28;20030;-63
2022/03/06 12:01:35;;;;;;;33.85;12.65;;;;;;;;;;5036879;28;20512;-63
2022/03/06 12:04:02;;;;;;;29.58;11.75;;;;;;;;;;5038149;28;20040;-63
2022/03/06 12:06:28;;;;;;;26.33;12.00;;;;;;;;;;5032616;28;20424;-63
2022/03/06 12:08:55;;;;;;;28.17;12.00;;;;;;;;;;5041497;28;20496;-63
2022/03/06 12:11:22;;;;;;;27.90;11.02;;;;;;;;;;5042001;28;20091;-63
2022/03/06 12:13:51;;;;;;;31.27;11.75;;;;;;;;;;5044513;28;20288;-63
2022/03/06 12:16:17;;;;;;;32.78;12.35;;;;;;;;;;5048300;28;20033;-63
2022/03/06 12:19:03;;;;;;;30.98;12.38;;;;;;;;;;5042764;28;20040;-63
2022/03/06 12:21:38;;;;;;;39.42;15.57;;;;;;;;;;5043049;28;20067;-62
2022/03/06 12:24:11;;;;;;;32.65;12.85;;;;;;;;;;5036581;28;20470;-63
2022/03/06 12:26:45;;;;;;;33.38;11.70;;;;;;;;;;5037079;28;20630;-63
2022/03/06 12:29:31;;;;;;;33.75;12.20;;;;;;;;;;5037114;28;20025;-63
2022/03/06 12:31:57;;;;;;;34.88;12.43;;;;;;;;;;5039659;28;20079;-63
2022/03/06 12:34:39;;;;;;;40.05;14.75;;;;;;;;;;5033649;28;20025;-63
2022/03/06 12:37:05;;;;;;;42.88;15.15;;;;;;;;;;5034157;28;20037;-63
2022/03/06 12:39:34;;;;;;;39.53;13.73;;;;;;;;;;5045539;28;20412;-63
2022/03/06 12:42:00;;;;;;;35.30;14.50;;;;;;;;;;5035229;28;20402;-63
2022/03/06 12:44:27;;;;;;;36.35;13.23;;;;;;;;;;5044176;28;20021;-63
2022/03/06 12:46:54;;;;;;;41.85;15.13;;;;;;;;;;5040200;28;20032;-63
2022/03/06 12:49:23;;;;;;;42.63;14.23;;;;;;;;;;5034579;28;20038;-63
2022/03/06 12:51:51;;;;;;;36.55;13.15;;;;;;;;;;5031977;28;20033;-63
2022/03/06 12:54:19;;;;;;;35.08;13.65;;;;;;;;;;5045210;28;20029;-63
2022/03/06 12:56:45;;;;;;;41.40;14.90;;;;;;;;;;5040417;28;20151;-63
2022/03/06 12:59:17;;;;;;;38.55;13.20;;;;;;;;;;5042588;28;20021;-63
2022/03/06 13:01:45;;;;;;;38.15;14.10;;;;;;;;;;5041939;28;20047;-63
2022/03/06 13:04:11;;;;;;;40.42;13.25;;;;;;;;;;5043329;28;20048;-63
2022/03/06 13:06:38;;;;;;;40.33;15.23;;;;;;;;;;5039451;28;20550;-63
2022/03/06 13:09:05;;;;;;;37.03;12.90;;;;;;;;;;5039586;28;20017;-63
2022/03/06 13:11:38;;;;;;;41.63;15.10;;;;;;;;;;5035061;28;20028;-63
2022/03/06 13:14:06;;;;;;;40.33;14.98;;;;;;;;;;5042855;28;20083;-63
2022/03/06 13:16:32;;;;;;;31.85;14.40;;;;;;;;;;5038641;28;20057;-63
2022/03/06 13:19:03;;;;;;;40.58;14.80;;;;;;;;;;5040114;28;20439;-63
2022/03/06 13:21:29;;;;;;;33.58;15.30;;;;;;;;;;5043469;28;20029;-63
2022/03/06 13:24:00;;;;;;;41.47;15.65;;;;;;;;;;5039962;28;20079;-63
2022/03/06 13:26:27;;;;;;;36.17;14.63;;;;;;;;;;5039353;28;20476;-63
2022/03/06 13:28:53;;;;;;;40.42;15.85;;;;;;;;;;5041456;28;20021;-63
2022/03/06 13:31:20;;;;;;;40.40;15.68;;;;;;;;;;5038745;28;20482;-63
2022/03/06 13:33:59;;;;;;;34.95;14.55;;;;;;;;;;5041649;28;20029;-63
2022/03/06 13:36:26;;;;;;;37.72;15.27;;;;;;;;;;5038660;28;20029;-63
2022/03/06 13:38:59;;;;;;;44.10;16.52;;;;;;;;;;5036863;28;20024;-63
2022/03/06 13:41:25;;;;;;;;;;;;;;;;;;5043012;28;20573;-63
2022/03/06 13:43:52;;;;;;;41.40;15.25;;;;;;;;;;5037707;28;20266;-63
2022/03/06 13:46:20;;;;;;;44.47;15.82;;;;;;;;;;5037501;28;20077;-63
2022/03/06 13:48:47;;;;;;;37.92;15.38;;;;;;;;;;5037200;28;20115;-63
2022/03/06 13:51:18;;;;;;;38.88;14.93;;;;;;;;;;5041788;28;20582;-63
2022/03/06 13:53:54;;;;;;;42.72;17.55;;;;;;;;;;5039415;28;20049;-63
2022/03/06 13:56:27;;;;;;;38.85;15.55;;;;;;;;;;5036129;28;20026;-63
2022/03/06 13:58:53;;;;;;;47.28;17.23;;;;;;;;;;5035578;28;20029;-63
2022/03/06 14:01:20;;;;;;;40.90;16.67;;;;;;;;;;5035783;28;20052;-63
2022/03/06 14:03:46;;;;;;;44.42;16.70;;;;;;;;;;5039626;28;20033;-63
2022/03/06 14:06:13;;;;;;;66.90;21.35;;;;;;;;;;5038477;28;20033;-63
2022/03/06 14:08:46;;;;;;;39.55;16.00;;;;;;;;;;5045156;28;20021;-63
2022/03/06 14:11:24;;;;;;;37.88;17.15;;;;;;;;;;5042097;28;20381;-63
2022/03/06 14:13:58;;;;;;;43.80;15.60;;;;;;;;;;5038698;28;20055;-63
2022/03/06 14:16:30;;;;;;;45.10;17.95;;;;;;;;;;5049865;28;20409;-63
2022/03/06 14:19:07;;;;;;;39.63;17.05;;;;;;;;;;5044998;28;20033;-63
2022/03/06 14:21:35;;;;;;;43.45;18.15;;;;;;;;;;5045476;28;20473;-63
2022/03/06 14:24:05;;;;;;;37.10;17.42;;;;;;;;;;5044314;28;20025;-63
2022/03/06 14:26:35;;;;;;;47.28;18.13;;;;;;;;;;5041495;28;20114;-63